sensor_id;sensor_type;location;lat;lon;timestamp;pressure;altitude;pressure_sealevel;temperature;humidity
64739;BME280;51175;51.186;0.276;2022-08-03T00:00:16;101060.56;;;25.08;54.96
64739;BME280;51175;51.186;0.276;2022-08-03T00:00:46;101059.47;;;25.09;54.79
64739;BME280;51175;51.186;0.276;2022-08-03T00:01:17;101055.97;;;25.08;55.04
64739;BME280;51175;51.186;0.276;2022-08-03T00:01:47;101055.97;;;25.08;55.00
64739;BME280;51175;51.186;0.276;2022-08-03T00:02:18;101053.59;;;25.07;55.00
64739;BME280;51175;51.186;0.276;2022-08-03T00:02:48;101062.50;;;25.07;54.93
64739;BME280;51175;51.186;0.276;2022-08-03T00:03:19;101059.00;;;25.07;55.04
64739;BME280;51175;51.186;0.276;2022-08-03T00:03:49;101056.31;;;25.07;54.98
64739;BME280;51175;51.186;0.276;2022-08-03T00:04:20;101056.31;;;25.07;55.12
64739;BME280;51175;51.186;0.276;2022-08-03T00:04:50;101059.00;;;25.07;55.08
64739;BME280;51175;51.186;0.276;2022-08-03T00:05:20;101055.50;;;25.06;54.95
64739;BME280;51175;51.186;0.276;2022-08-03T00:05:51;101056.31;;;25.07;54.98
64739;BME280;51175;51.186;0.276;2022-08-03T00:06:21;101057.44;;;25.06;55.00
64739;BME280;51175;51.186;0.276;2022-08-03T00:06:52;101055.50;;;25.06;54.93
64739;BME280;51175;51.186;0.276;2022-08-03T00:07:22;101056.66;;;25.05;55.03
64739;BME280;51175;51.186;0.276;2022-08-03T00:07:52;101056.66;;;25.05;54.94
64739;BME280;51175;51.186;0.276;2022-08-03T00:08:23;101058.56;;;25.04;54.94
64739;BME280;51175;51.186;0.276;2022-08-03T00:08:53;101053.94;;;25.05;54.95
64739;BME280;51175;51.186;0.276;2022-08-03T00:09:24;101058.56;;;25.04;54.86
64739;BME280;51175;51.186;0.276;2022-08-03T00:09:54;101053.16;;;25.04;54.96
64739;BME280;51175;51.186;0.276;2022-08-03T00:10:24;101053.16;;;25.04;55.07
64739;BME280;51175;51.186;0.276;2022-08-03T00:10:55;101051.59;;;25.03;54.97
64739;BME280;51175;51.186;0.276;2022-08-03T00:11:26;101054.28;;;25.03;54.94
64739;BME280;51175;51.186;0.276;2022-08-03T00:11:56;101053.50;;;25.03;54.98
64739;BME280;51175;51.186;0.276;2022-08-03T00:12:27;101051.59;;;25.03;55.00
64739;BME280;51175;51.186;0.276;2022-08-03T00:12:57;101052.75;;;25.02;55.00
64739;BME280;51175;51.186;0.276;2022-08-03T00:13:28;101050.03;;;25.02;54.88
64739;BME280;51175;51.186;0.276;2022-08-03T00:13:58;101055.44;;;25.02;55.02
64739;BME280;51175;51.186;0.276;2022-08-03T00:14:29;101054.66;;;25.02;54.99
64739;BME280;51175;51.186;0.276;2022-08-03T00:14:59;101049.25;;;25.02;55.13
64739;BME280;51175;51.186;0.276;2022-08-03T00:15:29;101047.34;;;25.02;54.95
64739;BME280;51175;51.186;0.276;2022-08-03T00:16:00;101045.75;;;25.01;54.97
64739;BME280;51175;51.186;0.276;2022-08-03T00:16:30;101045.75;;;25.01;54.93
64739;BME280;51175;51.186;0.276;2022-08-03T00:17:01;101042.28;;;25.01;55.03
64739;BME280;51175;51.186;0.276;2022-08-03T00:17:32;101059.25;;;25.01;54.92
64739;BME280;51175;51.186;0.276;2022-08-03T00:18:02;101040.69;;;25.00;55.01
64739;BME280;51175;51.186;0.276;2022-08-03T00:18:33;101043.38;;;25.00;55.22
64739;BME280;51175;51.186;0.276;2022-08-03T00:19:03;101042.28;;;25.01;54.89
64739;BME280;51175;51.186;0.276;2022-08-03T00:19:34;101037.97;;;25.00;54.87
64739;BME280;51175;51.186;0.276;2022-08-03T00:20:04;101039.88;;;24.99;54.92
64739;BME280;51175;51.186;0.276;2022-08-03T00:20:35;101040.69;;;25.00;54.96
64739;BME280;51175;51.186;0.276;2022-08-03T00:21:06;101041.81;;;24.99;55.01
64739;BME280;51175;51.186;0.276;2022-08-03T00:21:36;101042.59;;;24.99;55.05
64739;BME280;51175;51.186;0.276;2022-08-03T00:22:06;101042.59;;;24.99;55.05
64739;BME280;51175;51.186;0.276;2022-08-03T00:22:37;101040.25;;;24.98;55.03
64739;BME280;51175;51.186;0.276;2022-08-03T00:23:07;101041.81;;;24.99;54.79
64739;BME280;51175;51.186;0.276;2022-08-03T00:23:38;101045.28;;;24.99;54.86
64739;BME280;51175;51.186;0.276;2022-08-03T00:24:08;101042.94;;;24.98;55.02
64739;BME280;51175;51.186;0.276;2022-08-03T00:24:39;101044.06;;;24.97;55.02
64739;BME280;51175;51.186;0.276;2022-08-03T00:25:09;101046.44;;;24.98;55.09
64739;BME280;51175;51.186;0.276;2022-08-03T00:25:39;101047.56;;;24.97;55.15
64739;BME280;51175;51.186;0.276;2022-08-03T00:26:10;101040.25;;;24.98;55.06
64739;BME280;51175;51.186;0.276;2022-08-03T00:26:40;101039.47;;;24.97;55.05
64739;BME280;51175;51.186;0.276;2022-08-03T00:27:11;101042.16;;;24.97;54.98
64739;BME280;51175;51.186;0.276;2022-08-03T00:27:41;101041.38;;;24.97;54.95
64739;BME280;51175;51.186;0.276;2022-08-03T00:28:11;101039.81;;;24.96;55.03
64739;BME280;51175;51.186;0.276;2022-08-03T00:28:42;101039.03;;;24.95;54.96
64739;BME280;51175;51.186;0.276;2022-08-03T00:29:12;101042.53;;;24.96;55.02
64739;BME280;51175;51.186;0.276;2022-08-03T00:29:43;101041.72;;;24.95;54.87
64739;BME280;51175;51.186;0.276;2022-08-03T00:30:13;101039.81;;;24.96;54.93
64739;BME280;51175;51.186;0.276;2022-08-03T00:30:43;101041.72;;;24.95;54.92
64739;BME280;51175;51.186;0.276;2022-08-03T00:31:14;101042.06;;;24.94;54.90
64739;BME280;51175;51.186;0.276;2022-08-03T00:31:44;101037.47;;;24.94;54.97
64739;BME280;51175;51.186;0.276;2022-08-03T00:32:15;101038.22;;;24.95;54.99
64739;BME280;51175;51.186;0.276;2022-08-03T00:32:45;101034.75;;;24.94;54.97
64739;BME280;51175;51.186;0.276;2022-08-03T00:33:16;101038.56;;;24.93;54.92
64739;BME280;51175;51.186;0.276;2022-08-03T00:33:46;101035.88;;;24.93;54.96
64739;BME280;51175;51.186;0.276;2022-08-03T00:34:16;101035.09;;;24.92;54.94
64739;BME280;51175;51.186;0.276;2022-08-03T00:34:47;101040.50;;;24.92;54.97
64739;BME280;51175;51.186;0.276;2022-08-03T00:35:17;101035.09;;;24.92;54.88
64739;BME280;51175;51.186;0.276;2022-08-03T00:35:48;101039.72;;;24.92;55.04
64739;BME280;51175;51.186;0.276;2022-08-03T00:36:18;101034.31;;;24.92;54.80
64739;BME280;51175;51.186;0.276;2022-08-03T00:36:48;101031.59;;;24.92;55.04
64739;BME280;51175;51.186;0.276;2022-08-03T00:37:19;101034.31;;;24.92;54.89
64739;BME280;51175;51.186;0.276;2022-08-03T00:37:50;101027.34;;;24.91;54.91
64739;BME280;51175;51.186;0.276;2022-08-03T00:38:20;101032.75;;;24.91;55.03
64739;BME280;51175;51.186;0.276;2022-08-03T00:38:51;101034.66;;;24.90;55.02
64739;BME280;51175;51.186;0.276;2022-08-03T00:39:21;101027.34;;;24.91;54.83
64739;BME280;51175;51.186;0.276;2022-08-03T00:39:51;101036.56;;;24.90;55.07
64739;BME280;51175;51.186;0.276;2022-08-03T00:40:22;101037.34;;;24.90;54.90
64739;BME280;51175;51.186;0.276;2022-08-03T00:40:53;101033.09;;;24.89;55.02
64739;BME280;51175;51.186;0.276;2022-08-03T00:41:23;101031.94;;;24.90;54.82
64739;BME280;51175;51.186;0.276;2022-08-03T00:41:53;101029.59;;;24.89;55.17
64739;BME280;51175;51.186;0.276;2022-08-03T00:42:24;101027.69;;;24.89;54.82
64739;BME280;51175;51.186;0.276;2022-08-03T00:42:57;101025.31;;;24.88;54.88
64739;BME280;51175;51.186;0.276;2022-08-03T00:43:27;101033.41;;;24.88;54.96
64739;BME280;51175;51.186;0.276;2022-08-03T00:43:58;101030.72;;;24.88;54.86
64739;BME280;51175;51.186;0.276;2022-08-03T00:44:28;101030.72;;;24.88;55.02
64739;BME280;51175;51.186;0.276;2022-08-03T00:44:59;101025.31;;;24.88;55.00
64739;BME280;51175;51.186;0.276;2022-08-03T00:45:38;101030.72;;;24.88;55.01
64739;BME280;51175;51.186;0.276;2022-08-03T00:46:08;101031.81;;;24.87;54.97
64739;BME280;51175;51.186;0.276;2022-08-03T00:46:38;101023.72;;;24.87;55.02
64739;BME280;51175;51.186;0.276;2022-08-03T00:47:10;101029.13;;;24.87;54.80
64739;BME280;51175;51.186;0.276;2022-08-03T00:47:40;101024.84;;;24.86;54.86
64739;BME280;51175;51.186;0.276;2022-08-03T00:48:11;101028.34;;;24.86;54.93
64739;BME280;51175;51.186;0.276;2022-08-03T00:48:42;101028.34;;;24.86;55.12
64739;BME280;51175;51.186;0.276;2022-08-03T00:49:12;101024.06;;;24.85;54.92
64739;BME280;51175;51.186;0.276;2022-08-03T00:49:42;101027.56;;;24.86;54.91
64739;BME280;51175;51.186;0.276;2022-08-03T00:50:14;101024.84;;;24.86;54.92
64739;BME280;51175;51.186;0.276;2022-08-03T00:50:45;101019.81;;;24.84;54.89
64739;BME280;51175;51.186;0.276;2022-08-03T00:51:17;101026.00;;;24.85;55.16
64739;BME280;51175;51.186;0.276;2022-08-03T00:51:48;101021.72;;;24.84;54.99
64739;BME280;51175;51.186;0.276;2022-08-03T00:52:18;101016.31;;;24.84;55.02
64739;BME280;51175;51.186;0.276;2022-08-03T00:52:51;101022.50;;;24.84;54.84
64739;BME280;51175;51.186;0.276;2022-08-03T00:53:23;101021.72;;;24.84;55.02
64739;BME280;51175;51.186;0.276;2022-08-03T00:53:53;101015.53;;;24.83;55.33
64739;BME280;51175;51.186;0.276;2022-08-03T00:54:24;101017.09;;;24.84;54.89
64739;BME280;51175;51.186;0.276;2022-08-03T00:54:55;101016.66;;;24.82;54.98
64739;BME280;51175;51.186;0.276;2022-08-03T00:55:26;101015.53;;;24.83;54.99
64739;BME280;51175;51.186;0.276;2022-08-03T00:55:57;101018.25;;;24.83;55.01
64739;BME280;51175;51.186;0.276;2022-08-03T00:56:27;101022.84;;;24.83;55.07
64739;BME280;51175;51.186;0.276;2022-08-03T00:56:58;101022.06;;;24.82;55.10
64739;BME280;51175;51.186;0.276;2022-08-03T00:57:29;101020.50;;;24.81;55.13
64739;BME280;51175;51.186;0.276;2022-08-03T00:58:02;101025.53;;;24.83;54.88
64739;BME280;51175;51.186;0.276;2022-08-03T00:58:36;101015.88;;;24.82;54.82
64739;BME280;51175;51.186;0.276;2022-08-03T00:59:08;101021.28;;;24.82;54.89
64739;BME280;51175;51.186;0.276;2022-08-03T00:59:39;101020.50;;;24.81;55.03
64739;BME280;51175;51.186;0.276;2022-08-03T01:00:11;101017.78;;;24.81;54.98
64739;BME280;51175;51.186;0.276;2022-08-03T01:00:42;101015.09;;;24.81;55.04
64739;BME280;51175;51.186;0.276;2022-08-03T01:01:13;101025.09;;;24.80;55.02
64739;BME280;51175;51.186;0.276;2022-08-03T01:01:44;101022.41;;;24.80;55.03
64739;BME280;51175;51.186;0.276;2022-08-03T01:02:14;101024.34;;;24.80;54.99
64739;BME280;51175;51.186;0.276;2022-08-03T01:02:45;101020.84;;;24.79;54.92
64739;BME280;51175;51.186;0.276;2022-08-03T01:03:15;101020.84;;;24.79;54.94
64739;BME280;51175;51.186;0.276;2022-08-03T01:03:46;101023.53;;;24.79;55.01
64739;BME280;51175;51.186;0.276;2022-08-03T01:04:16;101026.22;;;24.79;54.96
64739;BME280;51175;51.186;0.276;2022-08-03T01:04:46;101025.44;;;24.79;54.91
64739;BME280;51175;51.186;0.276;2022-08-03T01:05:18;101020.03;;;24.79;54.93
64739;BME280;51175;51.186;0.276;2022-08-03T01:05:59;101017.34;;;24.79;54.96
64739;BME280;51175;51.186;0.276;2022-08-03T01:06:33;101016.56;;;24.78;54.95
64739;BME280;51175;51.186;0.276;2022-08-03T01:08:04;101023.88;;;24.78;55.04
64739;BME280;51175;51.186;0.276;2022-08-03T01:08:45;101021.19;;;24.78;54.76
64739;BME280;51175;51.186;0.276;2022-08-03T01:11:20;101027.28;;;24.75;55.11
64739;BME280;51175;51.186;0.276;2022-08-03T01:12:45;101022.22;;;24.73;55.07
64739;BME280;51175;51.186;0.276;2022-08-03T01:13:43;101019.50;;;24.73;55.01
64739;BME280;51175;51.186;0.276;2022-08-03T01:14:24;101019.84;;;24.72;55.02
64739;BME280;51175;51.186;0.276;2022-08-03T01:15:23;101012.91;;;24.71;55.17
64739;BME280;51175;51.186;0.276;2022-08-03T01:16:02;101024.47;;;24.71;55.09
64739;BME280;51175;51.186;0.276;2022-08-03T01:17:32;101027.84;;;24.68;55.15
64739;BME280;51175;51.186;0.276;2022-08-03T01:18:46;101022.78;;;24.66;55.27
64739;BME280;51175;51.186;0.276;2022-08-03T01:20:10;101021.22;;;24.65;55.13
64739;BME280;51175;51.186;0.276;2022-08-03T01:20:44;101020.44;;;24.65;55.19
64739;BME280;51175;51.186;0.276;2022-08-03T01:21:28;101021.22;;;24.65;55.16
64739;BME280;51175;51.186;0.276;2022-08-03T01:27:17;101017.63;;;24.61;55.34
64739;BME280;51175;51.186;0.276;2022-08-03T01:30:24;101019.13;;;24.59;55.41
64739;BME280;51175;51.186;0.276;2022-08-03T01:31:00;101017.56;;;24.58;55.21
64739;BME280;51175;51.186;0.276;2022-08-03T01:31:39;101009.44;;;24.58;55.32
64739;BME280;51175;51.186;0.276;2022-08-03T01:32:15;101015.97;;;24.57;55.31
64739;BME280;51175;51.186;0.276;2022-08-03T01:32:53;101011.34;;;24.57;55.69
64739;BME280;51175;51.186;0.276;2022-08-03T01:33:35;101014.06;;;24.57;55.33
64739;BME280;51175;51.186;0.276;2022-08-03T01:34:08;101008.66;;;24.57;55.34
64739;BME280;51175;51.186;0.276;2022-08-03T01:34:46;101015.19;;;24.56;55.21
64739;BME280;51175;51.186;0.276;2022-08-03T01:35:25;101009.44;;;24.58;55.56
64739;BME280;51175;51.186;0.276;2022-08-03T01:36:03;101009.44;;;24.58;55.31
64739;BME280;51175;51.186;0.276;2022-08-03T01:36:38;101010.56;;;24.57;55.16
64739;BME280;51175;51.186;0.276;2022-08-03T01:37:11;101018.66;;;24.57;55.25
64739;BME280;51175;51.186;0.276;2022-08-03T01:37:48;101013.25;;;24.57;55.34
64739;BME280;51175;51.186;0.276;2022-08-03T01:38:26;101013.25;;;24.57;55.27
64739;BME280;51175;51.186;0.276;2022-08-03T01:39:00;101014.06;;;24.57;55.35
64739;BME280;51175;51.186;0.276;2022-08-03T01:39:31;101013.25;;;24.57;55.07
64739;BME280;51175;51.186;0.276;2022-08-03T01:40:04;101013.25;;;24.57;55.18
64739;BME280;51175;51.186;0.276;2022-08-03T01:40:36;101013.25;;;24.57;55.00
64739;BME280;51175;51.186;0.276;2022-08-03T01:41:20;101012.91;;;24.58;55.19
64739;BME280;51175;51.186;0.276;2022-08-03T01:41:58;101013.25;;;24.57;55.31
64739;BME280;51175;51.186;0.276;2022-08-03T01:42:30;101009.44;;;24.58;55.25
64739;BME280;51175;51.186;0.276;2022-08-03T01:43:03;101014.06;;;24.57;55.23
64739;BME280;51175;51.186;0.276;2022-08-03T01:43:36;101005.97;;;24.57;55.27
64739;BME280;51175;51.186;0.276;2022-08-03T01:44:09;101014.84;;;24.58;55.19
64739;BME280;51175;51.186;0.276;2022-08-03T01:44:41;101009.44;;;24.58;55.11
64739;BME280;51175;51.186;0.276;2022-08-03T01:45:14;101017.56;;;24.58;55.14
64739;BME280;51175;51.186;0.276;2022-08-03T01:45:47;101009.44;;;24.58;55.29
64739;BME280;51175;51.186;0.276;2022-08-03T01:46:18;101010.22;;;24.58;55.32
64739;BME280;51175;51.186;0.276;2022-08-03T01:46:50;101011.00;;;24.59;55.29
64739;BME280;51175;51.186;0.276;2022-08-03T01:47:23;101013.72;;;24.59;55.29
64739;BME280;51175;51.186;0.276;2022-08-03T01:47:55;101011.00;;;24.59;55.21
64739;BME280;51175;51.186;0.276;2022-08-03T01:48:26;101015.63;;;24.58;55.31
64739;BME280;51175;51.186;0.276;2022-08-03T01:48:58;101007.50;;;24.58;55.23
64739;BME280;51175;51.186;0.276;2022-08-03T01:49:31;101011.81;;;24.59;55.17
64739;BME280;51175;51.186;0.276;2022-08-03T01:50:03;101008.31;;;24.59;55.08
64739;BME280;51175;51.186;0.276;2022-08-03T01:50:34;101019.13;;;24.59;55.14
64739;BME280;51175;51.186;0.276;2022-08-03T01:51:07;101008.31;;;24.59;55.13
64739;BME280;51175;51.186;0.276;2022-08-03T01:51:41;101014.16;;;24.61;55.21
64739;BME280;51175;51.186;0.276;2022-08-03T01:52:13;101009.09;;;24.59;55.15
64739;BME280;51175;51.186;0.276;2022-08-03T01:52:46;101006.41;;;24.59;55.00
64739;BME280;51175;51.186;0.276;2022-08-03T01:53:19;101005.63;;;24.59;55.04
64739;BME280;51175;51.186;0.276;2022-08-03T01:53:50;101008.75;;;24.61;55.34
64739;BME280;51175;51.186;0.276;2022-08-03T01:54:24;101008.31;;;24.59;55.13
64739;BME280;51175;51.186;0.276;2022-08-03T01:54:55;101001.00;;;24.59;55.22
64739;BME280;51175;51.186;0.276;2022-08-03T01:55:29;101005.63;;;24.59;55.12
64739;BME280;51175;51.186;0.276;2022-08-03T01:56:02;101001.78;;;24.60;55.12
64739;BME280;51175;51.186;0.276;2022-08-03T01:56:36;101011.81;;;24.59;55.17
64739;BME280;51175;51.186;0.276;2022-08-03T01:57:08;101011.00;;;24.59;55.06
64739;BME280;51175;51.186;0.276;2022-08-03T01:57:42;101006.41;;;24.59;55.25
64739;BME280;51175;51.186;0.276;2022-08-03T01:58:14;101012.91;;;24.58;55.36
64739;BME280;51175;51.186;0.276;2022-08-03T01:58:48;101004.81;;;24.58;55.13
64739;BME280;51175;51.186;0.276;2022-08-03T01:59:21;101008.31;;;24.59;55.13
64739;BME280;51175;51.186;0.276;2022-08-03T01:59:54;101004.81;;;24.58;55.17
64739;BME280;51175;51.186;0.276;2022-08-03T02:00:26;101011.00;;;24.59;55.02
64739;BME280;51175;51.186;0.276;2022-08-03T02:00:57;101002.91;;;24.59;55.02
64739;BME280;51175;51.186;0.276;2022-08-03T02:01:30;100999.41;;;24.58;55.04
64739;BME280;51175;51.186;0.276;2022-08-03T02:02:03;101006.75;;;24.58;55.09
64739;BME280;51175;51.186;0.276;2022-08-03T02:02:35;101006.75;;;24.58;55.19
64739;BME280;51175;51.186;0.276;2022-08-03T02:03:06;101002.13;;;24.58;55.06
64739;BME280;51175;51.186;0.276;2022-08-03T02:03:39;101012.91;;;24.58;55.04
64739;BME280;51175;51.186;0.276;2022-08-03T02:04:12;101008.31;;;24.59;55.11
64739;BME280;51175;51.186;0.276;2022-08-03T02:04:46;101004.06;;;24.58;55.09
64739;BME280;51175;51.186;0.276;2022-08-03T02:05:17;101008.31;;;24.59;55.28
64739;BME280;51175;51.186;0.276;2022-08-03T02:05:49;101007.50;;;24.58;54.90
64739;BME280;51175;51.186;0.276;2022-08-03T02:06:21;101005.16;;;24.57;55.13
64739;BME280;51175;51.186;0.276;2022-08-03T02:06:53;101001.34;;;24.58;55.06
64739;BME280;51175;51.186;0.276;2022-08-03T02:07:25;101006.75;;;24.58;55.13
64739;BME280;51175;51.186;0.276;2022-08-03T02:07:57;101004.81;;;24.58;55.10
64739;BME280;51175;51.186;0.276;2022-08-03T02:08:29;101007.88;;;24.57;55.15
64739;BME280;51175;51.186;0.276;2022-08-03T02:09:01;101009.44;;;24.58;55.04
64739;BME280;51175;51.186;0.276;2022-08-03T02:09:33;101010.56;;;24.57;54.95
64739;BME280;51175;51.186;0.276;2022-08-03T02:10:06;101007.88;;;24.57;55.00
64739;BME280;51175;51.186;0.276;2022-08-03T02:10:40;101015.97;;;24.57;54.96
64739;BME280;51175;51.186;0.276;2022-08-03T02:11:11;101010.56;;;24.57;54.85
64739;BME280;51175;51.186;0.276;2022-08-03T02:11:42;101006.31;;;24.55;54.85
64739;BME280;51175;51.186;0.276;2022-08-03T02:12:14;101007.88;;;24.57;54.96
64739;BME280;51175;51.186;0.276;2022-08-03T02:12:46;101006.31;;;24.55;55.14
64739;BME280;51175;51.186;0.276;2022-08-03T02:13:18;101010.56;;;24.57;54.82
64739;BME280;51175;51.186;0.276;2022-08-03T02:13:51;101014.41;;;24.55;55.13
64739;BME280;51175;51.186;0.276;2022-08-03T02:14:22;101010.56;;;24.57;54.95
64739;BME280;51175;51.186;0.276;2022-08-03T02:14:54;101007.88;;;24.57;54.98
64739;BME280;51175;51.186;0.276;2022-08-03T02:15:26;101003.59;;;24.55;55.12
64739;BME280;51175;51.186;0.276;2022-08-03T02:15:57;101014.41;;;24.55;55.00
64739;BME280;51175;51.186;0.276;2022-08-03T02:16:30;101010.13;;;24.54;55.07
64739;BME280;51175;51.186;0.276;2022-08-03T02:17:02;101011.69;;;24.55;54.95
64739;BME280;51175;51.186;0.276;2022-08-03T02:17:33;101006.31;;;24.55;54.97
64739;BME280;51175;51.186;0.276;2022-08-03T02:18:06;101014.41;;;24.55;55.02
64739;BME280;51175;51.186;0.276;2022-08-03T02:18:40;101010.91;;;24.55;54.98
64739;BME280;51175;51.186;0.276;2022-08-03T02:19:12;101005.50;;;24.55;55.15
64739;BME280;51175;51.186;0.276;2022-08-03T02:19:43;101005.50;;;24.55;55.10
64739;BME280;51175;51.186;0.276;2022-08-03T02:20:14;101005.50;;;24.55;55.05
64739;BME280;51175;51.186;0.276;2022-08-03T02:20:46;101010.91;;;24.55;54.94
64739;BME280;51175;51.186;0.276;2022-08-03T02:21:17;101014.75;;;24.54;54.98
64739;BME280;51175;51.186;0.276;2022-08-03T02:21:49;101007.44;;;24.54;55.04
64739;BME280;51175;51.186;0.276;2022-08-03T02:22:21;101003.94;;;24.54;54.94
64739;BME280;51175;51.186;0.276;2022-08-03T02:22:53;101010.13;;;24.54;54.97
64739;BME280;51175;51.186;0.276;2022-08-03T02:23:24;100999.69;;;24.53;55.02
64739;BME280;51175;51.186;0.276;2022-08-03T02:23:55;101010.13;;;24.54;55.00
64739;BME280;51175;51.186;0.276;2022-08-03T02:24:25;101007.44;;;24.54;55.00
64739;BME280;51175;51.186;0.276;2022-08-03T02:24:56;101005.84;;;24.53;54.99
64739;BME280;51175;51.186;0.276;2022-08-03T02:25:27;101004.75;;;24.54;54.93
64739;BME280;51175;51.186;0.276;2022-08-03T02:26:02;101007.44;;;24.54;54.89
64739;BME280;51175;51.186;0.276;2022-08-03T02:26:34;101003.16;;;24.53;55.01
64739;BME280;51175;51.186;0.276;2022-08-03T02:27:20;101006.66;;;24.54;54.97
64739;BME280;51175;51.186;0.276;2022-08-03T02:27:54;100997.75;;;24.53;54.95
64739;BME280;51175;51.186;0.276;2022-08-03T02:28:29;100998.88;;;24.52;54.96
64739;BME280;51175;51.186;0.276;2022-08-03T02:29:10;100998.88;;;24.52;55.03
64739;BME280;51175;51.186;0.276;2022-08-03T02:29:43;101000.78;;;24.52;54.92
64739;BME280;51175;51.186;0.276;2022-08-03T02:30:15;101007.00;;;24.52;55.17
64739;BME280;51175;51.186;0.276;2022-08-03T02:30:51;101002.72;;;24.51;55.02
64739;BME280;51175;51.186;0.276;2022-08-03T02:31:26;100997.31;;;24.51;55.10
64739;BME280;51175;51.186;0.276;2022-08-03T02:31:59;101001.13;;;24.50;55.00
64739;BME280;51175;51.186;0.276;2022-08-03T02:32:34;100999.22;;;24.51;55.14
64739;BME280;51175;51.186;0.276;2022-08-03T02:33:17;101003.84;;;24.50;55.04
64739;BME280;51175;51.186;0.276;2022-08-03T02:33:56;101003.84;;;24.50;54.97
64739;BME280;51175;51.186;0.276;2022-08-03T02:34:28;101004.97;;;24.49;55.15
64739;BME280;51175;51.186;0.276;2022-08-03T02:35:00;100998.00;;;24.48;55.06
64739;BME280;51175;51.186;0.276;2022-08-03T02:35:32;101002.28;;;24.49;55.10
64739;BME280;51175;51.186;0.276;2022-08-03T02:36:05;100998.00;;;24.48;54.98
64739;BME280;51175;51.186;0.276;2022-08-03T02:36:38;100994.19;;;24.49;55.12
64739;BME280;51175;51.186;0.276;2022-08-03T02:37:10;101004.19;;;24.49;55.21
64739;BME280;51175;51.186;0.276;2022-08-03T02:37:49;100989.91;;;24.48;55.20
64739;BME280;51175;51.186;0.276;2022-08-03T02:38:26;100999.91;;;24.48;55.13
64739;BME280;51175;51.186;0.276;2022-08-03T02:38:58;100989.91;;;24.48;55.13
64739;BME280;51175;51.186;0.276;2022-08-03T02:39:31;100983.72;;;24.48;55.06
64739;BME280;51175;51.186;0.276;2022-08-03T02:40:05;100991.03;;;24.47;55.05
64739;BME280;51175;51.186;0.276;2022-08-03T02:40:39;100996.88;;;24.49;54.99
64739;BME280;51175;51.186;0.276;2022-08-03T02:41:15;100994.53;;;24.48;54.99
64739;BME280;51175;51.186;0.276;2022-08-03T02:41:49;100993.72;;;24.47;55.08
64739;BME280;51175;51.186;0.276;2022-08-03T02:42:22;100992.16;;;24.46;55.22
64739;BME280;51175;51.186;0.276;2022-08-03T02:42:58;100992.97;;;24.47;54.96
64739;BME280;51175;51.186;0.276;2022-08-03T02:43:29;100992.16;;;24.46;55.22
64739;BME280;51175;51.186;0.276;2022-08-03T02:44:03;100994.88;;;24.46;55.12
64739;BME280;51175;51.186;0.276;2022-08-03T02:44:36;100992.16;;;24.46;55.05
64739;BME280;51175;51.186;0.276;2022-08-03T02:45:09;100991.38;;;24.46;55.08
64739;BME280;51175;51.186;0.276;2022-08-03T02:45:44;100994.06;;;24.46;55.07
64739;BME280;51175;51.186;0.276;2022-08-03T02:46:18;100992.16;;;24.46;55.05
64739;BME280;51175;51.186;0.276;2022-08-03T02:46:53;100989.47;;;24.46;55.12
64739;BME280;51175;51.186;0.276;2022-08-03T02:47:27;100992.16;;;24.46;55.32
64739;BME280;51175;51.186;0.276;2022-08-03T02:48:00;100994.06;;;24.46;55.01
64739;BME280;51175;51.186;0.276;2022-08-03T02:48:33;100994.88;;;24.46;55.07
64739;BME280;51175;51.186;0.276;2022-08-03T02:49:07;100988.66;;;24.46;55.17
64739;BME280;51175;51.186;0.276;2022-08-03T02:49:40;100996.00;;;24.45;55.10
64739;BME280;51175;51.186;0.276;2022-08-03T02:50:11;100996.75;;;24.46;54.94
64739;BME280;51175;51.186;0.276;2022-08-03T02:50:43;100990.59;;;24.45;55.07
64739;BME280;51175;51.186;0.276;2022-08-03T02:51:16;100996.00;;;24.45;55.14
64739;BME280;51175;51.186;0.276;2022-08-03T02:51:48;100997.56;;;24.46;55.09
64739;BME280;51175;51.186;0.276;2022-08-03T02:52:23;100993.31;;;24.45;55.10
64739;BME280;51175;51.186;0.276;2022-08-03T02:52:55;100990.59;;;24.45;55.03
64739;BME280;51175;51.186;0.276;2022-08-03T02:53:27;100996.00;;;24.45;54.98
64739;BME280;51175;51.186;0.276;2022-08-03T02:53:59;101000.59;;;24.45;55.19
64739;BME280;51175;51.186;0.276;2022-08-03T02:54:32;100998.69;;;24.45;55.16
64739;BME280;51175;51.186;0.276;2022-08-03T02:55:04;100997.09;;;24.44;55.03
64739;BME280;51175;51.186;0.276;2022-08-03T02:55:36;100997.09;;;24.44;54.99
64739;BME280;51175;51.186;0.276;2022-08-03T02:56:08;100994.41;;;24.44;54.92
64739;BME280;51175;51.186;0.276;2022-08-03T02:56:40;100996.34;;;24.43;54.89
64739;BME280;51175;51.186;0.276;2022-08-03T02:57:12;101000.59;;;24.45;55.15
64739;BME280;51175;51.186;0.276;2022-08-03T02:57:45;100997.09;;;24.44;54.85
64739;BME280;51175;51.186;0.276;2022-08-03T02:58:18;100997.09;;;24.44;55.12
64739;BME280;51175;51.186;0.276;2022-08-03T02:58:52;100999.81;;;24.44;55.04
64739;BME280;51175;51.186;0.276;2022-08-03T02:59:24;100997.91;;;24.45;54.99
64739;BME280;51175;51.186;0.276;2022-08-03T02:59:57;100988.25;;;24.43;55.11
64739;BME280;51175;51.186;0.276;2022-08-03T03:00:30;100987.44;;;24.43;55.02
64739;BME280;51175;51.186;0.276;2022-08-03T03:01:02;100990.94;;;24.43;55.22
64739;BME280;51175;51.186;0.276;2022-08-03T03:01:32;100994.41;;;24.44;55.03
64739;BME280;51175;51.186;0.276;2022-08-03T03:02:03;100993.66;;;24.43;55.03
64739;BME280;51175;51.186;0.276;2022-08-03T03:02:34;100994.41;;;24.44;55.04
64739;BME280;51175;51.186;0.276;2022-08-03T03:03:06;100992.84;;;24.43;55.11
64739;BME280;51175;51.186;0.276;2022-08-03T03:03:39;100995.53;;;24.43;54.94
64739;BME280;51175;51.186;0.276;2022-08-03T03:04:10;101004.44;;;24.43;55.03